Time;durP1;ratioP1;P1;durP2;ratioP2;P2;SDS_P1;SDS_P2;PMS_P1;PMS_P2;Temp;Humidity;BMP_temperature;BMP_pressure;BME280_temperature;BME280_humidity;BME280_pressure;Samples;Min_cycle;Max_cycle;Signal;HPM_P1;HPM_P2
2022/09/09 00:01:31;;;;;;;5.20;3.03;;;;;;;;;;5013218;28;20489;-64
2022/09/09 00:04:01;;;;;;;5.90;3.70;;;;;;;;;;5013082;28;20429;-65
2022/09/09 00:06:29;;;;;;;5.63;3.30;;;;;;;;;;5013297;28;20448;-64
2022/09/09 00:09:03;;;;;;;3.90;3.50;;;;;;;;;;5012978;28;20541;-64
2022/09/09 00:11:32;;;;;;;5.43;3.20;;;;;;;;;;5012878;28;20474;-64
2022/09/09 00:14:03;;;;;;;4.00;3.13;;;;;;;;;;5013036;28;20523;-64
2022/09/09 00:16:33;;;;;;;3.33;3.00;;;;;;;;;;5013596;28;20436;-64
2022/09/09 00:19:04;;;;;;;3.40;2.60;;;;;;;;;;5014126;28;20854;-64
2022/09/09 00:21:34;;;;;;;6.00;3.10;;;;;;;;;;5013156;28;20441;-64
2022/09/09 00:24:09;;;;;;;3.60;2.80;;;;;;;;;;5012899;28;20450;-64
2022/09/09 00:26:38;;;;;;;8.30;3.27;;;;;;;;;;5013177;28;20441;-64
2022/09/09 00:29:11;;;;;;;5.10;4.50;;;;;;;;;;5012890;28;20447;-64
2022/09/09 00:31:38;;;;;;;4.23;3.00;;;;;;;;;;5012947;28;20491;-64
2022/09/09 00:34:12;;;;;;;3.63;2.40;;;;;;;;;;5013214;28;20442;-64
2022/09/09 00:36:40;;;;;;;4.40;2.90;;;;;;;;;;5013195;28;20834;-64
2022/09/09 00:39:11;;;;;;;11.03;2.93;;;;;;;;;;5012986;28;20959;-64
2022/09/09 00:41:46;;;;;;;6.60;4.30;;;;;;;;;;5013063;28;20432;-64
2022/09/09 00:44:18;;;;;;;3.10;2.80;;;;;;;;;;5013156;28;20783;-64
2022/09/09 00:46:52;;;;;;;4.57;2.30;;;;;;;;;;5013043;28;20428;-65
2022/09/09 00:49:27;;;;;;;2.33;2.20;;;;;;;;;;5013784;28;20475;-64
2022/09/09 00:52:01;;;;;;;3.83;2.13;;;;;;;;;;5012849;28;20443;-64
2022/09/09 00:54:37;;;;;;;3.93;2.20;;;;;;;;;;5012814;28;20917;-64
2022/09/09 00:57:14;;;;;;;2.97;2.43;;;;;;;;;;5012577;28;20449;-64
2022/09/09 00:59:47;;;;;;;3.83;2.50;;;;;;;;;;5013177;28;20431;-64
2022/09/09 01:02:17;;;;;;;2.60;2.33;;;;;;;;;;5016042;28;20894;-64
2022/09/09 01:04:44;;;;;;;3.53;2.20;;;;;;;;;;5016888;28;20464;-64
2022/09/09 01:07:17;;;;;;;3.40;2.40;;;;;;;;;;5016328;28;20455;-64
2022/09/09 01:09:53;;;;;;;3.20;2.57;;;;;;;;;;5016598;28;20432;-63
2022/09/09 01:12:26;;;;;;;5.90;2.43;;;;;;;;;;5016666;28;20782;-64
2022/09/09 01:14:58;;;;;;;4.00;3.60;;;;;;;;;;5016566;28;20438;-64
2022/09/09 01:17:28;;;;;;;2.43;2.23;;;;;;;;;;5016445;28;20430;-64
2022/09/09 01:20:04;;;;;;;2.50;2.30;;;;;;;;;;5015840;28;20946;-64
2022/09/09 01:22:35;;;;;;;2.47;2.27;;;;;;;;;;5016292;28;20507;-64
2022/09/09 01:25:20;;;;;;;5.13;2.27;;;;;;;;;;5015829;28;20461;-64
2022/09/09 01:27:49;;;;;;;3.43;1.90;;;;;;;;;;5015636;28;20446;-64
2022/09/09 01:30:17;;;;;;;2.60;2.07;;;;;;;;;;5015458;28;20485;-64
2022/09/09 01:32:46;;;;;;;3.00;2.23;;;;;;;;;;5016443;28;20474;-64
2022/09/09 01:35:15;;;;;;;4.27;1.90;;;;;;;;;;5015585;28;20457;-64
2022/09/09 01:37:42;;;;;;;4.73;2.70;;;;;;;;;;5015759;28;20444;-64
2022/09/09 01:40:10;;;;;;;2.87;2.13;;;;;;;;;;5015845;28;20450;-64
2022/09/09 01:42:37;;;;;;;5.03;2.00;;;;;;;;;;5016018;28;20452;-64
2022/09/09 01:45:06;;;;;;;2.23;2.10;;;;;;;;;;5015361;28;20465;-64
2022/09/09 01:47:34;;;;;;;4.33;2.20;;;;;;;;;;5015272;28;20511;-64
2022/09/09 01:50:02;;;;;;;2.63;2.23;;;;;;;;;;5016218;28;20443;-64
2022/09/09 01:52:30;;;;;;;4.63;2.30;;;;;;;;;;5015099;28;20443;-64
2022/09/09 01:54:58;;;;;;;8.77;2.00;;;;;;;;;;5015637;28;20443;-64
2022/09/09 01:57:26;;;;;;;2.63;2.27;;;;;;;;;;5015374;28;20450;-64
2022/09/09 02:00:01;;;;;;;3.40;2.17;;;;;;;;;;5015447;28;20461;-64
2022/09/09 02:02:32;;;;;;;2.47;2.13;;;;;;;;;;5014922;28;20457;-64
2022/09/09 02:05:04;;;;;;;2.77;2.17;;;;;;;;;;5015658;28;20443;-64
2022/09/09 02:07:38;;;;;;;4.13;2.33;;;;;;;;;;5015489;28;20434;-64
2022/09/09 02:10:11;;;;;;;3.60;2.10;;;;;;;;;;5015430;28;20443;-65
2022/09/09 02:12:40;;;;;;;3.37;2.17;;;;;;;;;;5014228;28;20492;-65
2022/09/09 02:15:12;;;;;;;2.40;2.13;;;;;;;;;;5015357;28;20449;-64
2022/09/09 02:17:43;;;;;;;3.03;2.27;;;;;;;;;;5014756;28;20435;-65
2022/09/09 02:20:12;;;;;;;3.33;2.40;;;;;;;;;;5014822;28;20468;-64
2022/09/09 02:22:41;;;;;;;2.87;2.27;;;;;;;;;;5014845;28;20508;-65
2022/09/09 02:25:10;;;;;;;3.10;2.90;;;;;;;;;;5014849;28;20958;-64
2022/09/09 02:27:37;;;;;;;3.03;2.40;;;;;;;;;;5014818;28;20449;-65
2022/09/09 02:30:05;;;;;;;2.73;2.53;;;;;;;;;;5014854;28;20442;-64
2022/09/09 02:32:34;;;;;;;5.40;2.30;;;;;;;;;;5014987;28;20492;-64
2022/09/09 02:35:05;;;;;;;3.33;2.90;;;;;;;;;;5014442;28;20444;-64
2022/09/09 02:37:36;;;;;;;2.63;2.43;;;;;;;;;;5015440;28;20440;-64
2022/09/09 02:40:04;;;;;;;4.60;3.07;;;;;;;;;;5014708;28;20489;-65
2022/09/09 02:42:31;;;;;;;2.30;2.10;;;;;;;;;;5014948;28;20446;-64
2022/09/09 02:44:59;;;;;;;3.50;2.43;;;;;;;;;;5014559;28;20455;-65
2022/09/09 02:47:28;;;;;;;2.93;2.57;;;;;;;;;;5014714;28;20450;-65
2022/09/09 02:49:59;;;;;;;3.60;3.17;;;;;;;;;;5014123;28;20443;-65
2022/09/09 02:52:31;;;;;;;4.03;2.60;;;;;;;;;;5014391;28;20527;-65
2022/09/09 02:55:01;;;;;;;3.07;2.77;;;;;;;;;;5014194;28;20923;-64
2022/09/09 02:57:29;;;;;;;3.90;2.53;;;;;;;;;;5014090;28;20964;-64
2022/09/09 02:59:58;;;;;;;3.60;2.93;;;;;;;;;;5014207;28;20450;-65
2022/09/09 03:02:25;;;;;;;4.17;2.70;;;;;;;;;;5014675;28;20453;-65
2022/09/09 03:04:53;;;;;;;3.53;3.20;;;;;;;;;;5014164;28;20452;-65
2022/09/09 03:07:20;;;;;;;9.97;3.00;;;;;;;;;;5014613;28;20448;-64
2022/09/09 03:09:49;;;;;;;5.27;3.80;;;;;;;;;;5014063;28;20449;-64
2022/09/09 03:12:16;;;;;;;4.40;3.47;;;;;;;;;;5013846;28;20482;-64
2022/09/09 03:14:45;;;;;;;3.53;3.23;;;;;;;;;;5014113;28;20455;-64
2022/09/09 03:17:12;;;;;;;5.00;4.50;;;;;;;;;;5013728;28;20446;-64
2022/09/09 03:19:39;;;;;;;3.87;3.47;;;;;;;;;;5013598;28;20443;-65
2022/09/09 03:22:06;;;;;;;9.37;4.20;;;;;;;;;;5014301;28;20457;-64
2022/09/09 03:24:34;;;;;;;5.00;3.27;;;;;;;;;;5013659;28;20438;-64
2022/09/09 03:27:02;;;;;;;4.47;3.80;;;;;;;;;;5013954;28;20450;-64
2022/09/09 03:29:29;;;;;;;5.90;4.00;;;;;;;;;;5013432;28;20534;-64
2022/09/09 03:31:56;;;;;;;6.53;4.00;;;;;;;;;;5013194;28;20996;-64
2022/09/09 03:34:24;;;;;;;4.77;4.30;;;;;;;;;;5013404;28;20939;-65
2022/09/09 03:36:51;;;;;;;8.10;4.23;;;;;;;;;;5013718;28;20918;-64
2022/09/09 03:39:18;;;;;;;5.90;4.00;;;;;;;;;;5013558;28;20454;-64
2022/09/09 03:41:48;;;;;;;5.73;5.13;;;;;;;;;;5013336;28;20454;-64
2022/09/09 03:44:16;;;;;;;4.80;4.40;;;;;;;;;;5013239;28;20478;-64
2022/09/09 03:46:43;;;;;;;5.97;5.33;;;;;;;;;;5013567;28;20453;-64
2022/09/09 03:49:11;;;;;;;10.27;5.27;;;;;;;;;;5013881;28;20445;-65
2022/09/09 03:51:38;;;;;;;6.67;4.90;;;;;;;;;;5013399;28;20486;-64
2022/09/09 03:54:08;;;;;;;7.80;5.60;;;;;;;;;;5014273;28;20645;-65
2022/09/09 03:56:35;;;;;;;6.93;6.10;;;;;;;;;;5032016;28;20545;-65
2022/09/09 03:59:02;;;;;;;8.00;5.30;;;;;;;;;;5032423;28;20503;-65
2022/09/09 04:01:31;;;;;;;6.23;5.10;;;;;;;;;;5032773;28;20509;-64
2022/09/09 04:03:58;;;;;;;6.27;5.10;;;;;;;;;;5032668;28;20528;-65
2022/09/09 04:06:26;;;;;;;8.33;5.33;;;;;;;;;;5032517;28;20450;-65
2022/09/09 04:08:55;;;;;;;10.90;7.07;;;;;;;;;;5032990;28;20450;-65
2022/09/09 04:11:22;;;;;;;7.30;5.83;;;;;;;;;;5032781;28;20523;-65
2022/09/09 04:13:49;;;;;;;5.70;5.03;;;;;;;;;;5033105;28;20934;-64
2022/09/09 04:16:17;;;;;;;5.60;5.20;;;;;;;;;;5032508;28;20497;-65
2022/09/09 04:18:45;;;;;;;16.90;6.10;;;;;;;;;;5032640;28;20956;-65
2022/09/09 04:21:13;;;;;;;9.27;6.10;;;;;;;;;;5032919;28;20441;-64
2022/09/09 04:23:40;;;;;;;5.20;4.80;;;;;;;;;;5032451;28;20544;-65
2022/09/09 04:26:08;;;;;;;4.80;4.40;;;;;;;;;;5032215;28;20449;-66
2022/09/09 04:28:36;;;;;;;5.97;5.37;;;;;;;;;;5032810;28;20817;-64
2022/09/09 04:31:07;;;;;;;7.10;5.17;;;;;;;;;;5032609;28;20602;-65
2022/09/09 04:33:34;;;;;;;5.43;5.03;;;;;;;;;;5032809;28;20487;-64
2022/09/09 04:36:03;;;;;;;6.20;5.60;;;;;;;;;;5033920;28;20443;-65
2022/09/09 04:38:30;;;;;;;7.07;5.13;;;;;;;;;;5036681;28;20446;-65
2022/09/09 04:40:58;;;;;;;5.13;4.73;;;;;;;;;;5035987;28;20448;-64
2022/09/09 04:43:26;;;;;;;8.70;5.30;;;;;;;;;;5035870;28;20457;-65
2022/09/09 04:45:54;;;;;;;4.93;4.43;;;;;;;;;;5035631;28;20481;-65
2022/09/09 04:48:21;;;;;;;9.00;4.77;;;;;;;;;;5036123;28;20446;-64
2022/09/09 04:50:55;;;;;;;6.50;5.30;;;;;;;;;;5036110;28;20442;-66
2022/09/09 04:53:25;;;;;;;5.23;4.70;;;;;;;;;;5036225;28;20444;-65
2022/09/09 04:55:52;;;;;;;11.33;4.80;;;;;;;;;;5036048;28;20493;-65
2022/09/09 04:58:21;;;;;;;6.13;4.87;;;;;;;;;;5036113;28;20442;-65
2022/09/09 05:00:48;;;;;;;7.60;4.80;;;;;;;;;;5035653;28;20456;-65
2022/09/09 05:03:15;;;;;;;8.50;4.90;;;;;;;;;;5036171;28;20797;-65
2022/09/09 05:05:43;;;;;;;6.90;4.90;;;;;;;;;;5035415;28;20441;-65
2022/09/09 05:08:10;;;;;;;4.70;4.30;;;;;;;;;;5035728;28;20449;-65
2022/09/09 05:10:41;;;;;;;5.23;4.53;;;;;;;;;;5035809;28;20455;-65
2022/09/09 05:13:09;;;;;;;6.80;4.07;;;;;;;;;;5036302;28;20865;-65
2022/09/09 05:15:36;;;;;;;7.63;4.00;;;;;;;;;;5035680;28;20812;-65
2022/09/09 05:18:03;;;;;;;6.20;4.50;;;;;;;;;;5035697;28;20809;-65
2022/09/09 05:20:31;;;;;;;9.57;4.90;;;;;;;;;;5035432;28;20434;-65
2022/09/09 05:22:58;;;;;;;5.10;4.00;;;;;;;;;;5035853;28;20447;-65
2022/09/09 05:25:25;;;;;;;7.00;4.30;;;;;;;;;;5035422;28;20449;-65
2022/09/09 05:27:54;;;;;;;4.57;3.63;;;;;;;;;;5035471;28;20930;-65
2022/09/09 05:30:22;;;;;;;5.10;3.70;;;;;;;;;;5035677;28;20435;-66
2022/09/09 05:32:49;;;;;;;8.77;3.80;;;;;;;;;;5035954;28;20477;-65
2022/09/09 05:35:18;;;;;;;5.97;3.80;;;;;;;;;;5036363;28;20452;-66
2022/09/09 05:37:46;;;;;;;6.40;3.80;;;;;;;;;;5035766;28;20484;-66
2022/09/09 05:40:14;;;;;;;4.40;4.00;;;;;;;;;;5035401;28;20980;-66
2022/09/09 05:42:41;;;;;;;5.70;4.07;;;;;;;;;;5035770;28;20939;-66
2022/09/09 05:45:10;;;;;;;6.57;3.90;;;;;;;;;;5035892;28;20443;-66
2022/09/09 05:47:38;;;;;;;4.40;3.30;;;;;;;;;;5035672;28;20451;-66
2022/09/09 05:50:06;;;;;;;5.93;3.53;;;;;;;;;;5036563;28;20785;-65
2022/09/09 05:52:33;;;;;;;5.37;4.07;;;;;;;;;;5035559;28;20480;-66
2022/09/09 05:55:00;;;;;;;6.70;3.30;;;;;;;;;;5035869;28;20477;-66
2022/09/09 05:57:27;;;;;;;4.90;3.50;;;;;;;;;;5035635;28;20445;-66
2022/09/09 05:59:55;;;;;;;8.23;7.43;;;;;;;;;;5035616;28;20433;-66
2022/09/09 06:02:23;;;;;;;31.77;27.10;;;;;;;;;;5035572;28;20802;-66
2022/09/09 06:04:51;;;;;;;3.77;3.43;;;;;;;;;;5035178;28;20457;-66
2022/09/09 06:07:18;;;;;;;7.77;4.27;;;;;;;;;;5035015;28;20446;-66
2022/09/09 06:09:45;;;;;;;4.73;3.47;;;;;;;;;;5035142;28;20453;-65
2022/09/09 06:12:13;;;;;;;5.87;3.60;;;;;;;;;;5035128;28;20985;-65
2022/09/09 06:14:40;;;;;;;5.00;3.03;;;;;;;;;;5035566;28;20445;-66
2022/09/09 06:17:07;;;;;;;5.00;3.43;;;;;;;;;;5035230;28;20448;-65
2022/09/09 06:19:35;;;;;;;4.17;3.10;;;;;;;;;;5034984;28;20451;-65
2022/09/09 06:22:03;;;;;;;6.17;3.33;;;;;;;;;;5035117;28;20475;-66
2022/09/09 06:24:30;;;;;;;10.07;3.83;;;;;;;;;;5035109;28;20451;-65
2022/09/09 06:26:57;;;;;;;5.93;3.10;;;;;;;;;;5035303;28;20499;-66
2022/09/09 06:29:25;;;;;;;5.40;3.53;;;;;;;;;;5035009;28;20443;-66
2022/09/09 06:31:52;;;;;;;7.60;3.47;;;;;;;;;;5034189;28;20494;-65
2022/09/09 06:34:19;;;;;;;13.00;4.30;;;;;;;;;;5035181;28;20458;-66
2022/09/09 06:36:48;;;;;;;10.17;3.07;;;;;;;;;;5035206;28;20538;-66
2022/09/09 06:39:15;;;;;;;6.47;3.60;;;;;;;;;;5035212;28;20455;-66
2022/09/09 06:41:43;;;;;;;6.03;3.53;;;;;;;;;;5034341;28;20442;-66
2022/09/09 06:44:11;;;;;;;15.10;4.23;;;;;;;;;;5034433;28;20445;-65
2022/09/09 06:46:39;;;;;;;6.33;3.63;;;;;;;;;;5034544;28;20442;-65
2022/09/09 06:49:06;;;;;;;5.23;3.13;;;;;;;;;;5034719;28;20446;-66
2022/09/09 06:51:35;;;;;;;9.73;3.60;;;;;;;;;;5034670;28;20858;-66
2022/09/09 06:54:05;;;;;;;7.20;3.20;;;;;;;;;;5034221;28;20932;-66
2022/09/09 06:56:33;;;;;;;6.50;3.40;;;;;;;;;;5034228;28;21004;-66
2022/09/09 06:59:03;;;;;;;10.30;3.60;;;;;;;;;;5034250;28;20533;-65
2022/09/09 07:01:31;;;;;;;5.33;3.30;;;;;;;;;;5034105;28;20952;-66
2022/09/09 07:03:59;;;;;;;4.53;2.73;;;;;;;;;;5034280;28;20784;-66
2022/09/09 07:06:27;;;;;;;4.43;3.23;;;;;;;;;;5033937;28;20483;-66
2022/09/09 07:08:55;;;;;;;5.50;4.53;;;;;;;;;;5034223;28;20933;-66
2022/09/09 07:11:25;;;;;;;12.53;3.30;;;;;;;;;;5034621;28;20862;-65
2022/09/09 07:13:52;;;;;;;5.20;3.00;;;;;;;;;;5034848;28;20898;-66
2022/09/09 07:16:20;;;;;;;6.27;3.10;;;;;;;;;;5034727;28;20439;-66
2022/09/09 07:18:50;;;;;;;7.10;3.67;;;;;;;;;;5034153;28;20443;-65
2022/09/09 07:21:17;;;;;;;3.77;3.17;;;;;;;;;;5034795;28;20846;-66
2022/09/09 07:23:45;;;;;;;7.07;2.73;;;;;;;;;;5033636;28;20449;-66
2022/09/09 07:26:13;;;;;;;4.93;3.13;;;;;;;;;;5033668;28;20455;-66
2022/09/09 07:28:42;;;;;;;5.50;3.03;;;;;;;;;;5033801;28;20447;-66
2022/09/09 07:31:15;;;;;;;5.60;3.13;;;;;;;;;;5033439;28;21047;-66
2022/09/09 07:33:42;;;;;;;6.97;3.10;;;;;;;;;;5033391;28;20524;-66
2022/09/09 07:36:10;;;;;;;5.03;3.47;;;;;;;;;;5033527;28;20449;-66
2022/09/09 07:38:41;;;;;;;7.23;3.00;;;;;;;;;;5033698;28;20472;-66
2022/09/09 07:41:11;;;;;;;9.70;2.83;;;;;;;;;;5033331;28;20458;-66
2022/09/09 07:43:39;;;;;;;3.10;2.33;;;;;;;;;;5033219;28;20437;-66
2022/09/09 07:46:08;;;;;;;4.53;3.07;;;;;;;;;;5033378;28;20450;-65
2022/09/09 07:48:35;;;;;;;5.50;2.40;;;;;;;;;;5033510;28;20444;-65
2022/09/09 07:51:07;;;;;;;4.63;2.70;;;;;;;;;;5033258;28;20449;-65
2022/09/09 07:53:35;;;;;;;5.20;2.80;;;;;;;;;;5033327;28;20533;-65
2022/09/09 07:56:06;;;;;;;7.70;2.60;;;;;;;;;;5033456;28;20448;-65
2022/09/09 07:58:33;;;;;;;6.10;2.70;;;;;;;;;;5033351;28;20795;-65
2022/09/09 08:01:01;;;;;;;13.87;3.90;;;;;;;;;;5033152;28;20460;-67
2022/09/09 08:03:29;;;;;;;6.00;2.80;;;;;;;;;;5033299;28;20446;-66
2022/09/09 08:06:01;;;;;;;5.30;2.73;;;;;;;;;;5033322;28;20452;-65
2022/09/09 08:08:29;;;;;;;6.20;3.27;;;;;;;;;;5033316;28;20441;-65
2022/09/09 08:11:03;;;;;;;6.83;2.30;;;;;;;;;;5034535;28;20448;-65
2022/09/09 08:13:31;;;;;;;4.70;3.10;;;;;;;;;;5037278;28;20477;-66
2022/09/09 08:16:05;;;;;;;5.10;2.40;;;;;;;;;;5037740;28;20456;-66
2022/09/09 08:18:33;;;;;;;10.20;3.03;;;;;;;;;;5036999;28;20445;-66
2022/09/09 08:21:06;;;;;;;6.63;2.63;;;;;;;;;;5036965;28;20442;-67
2022/09/09 08:23:33;;;;;;;6.07;2.57;;;;;;;;;;5037330;28;20503;-66
2022/09/09 08:26:05;;;;;;;3.63;3.10;;;;;;;;;;5037506;28;20443;-66
2022/09/09 08:28:32;;;;;;;7.23;2.60;;;;;;;;;;5036846;28;20439;-65
2022/09/09 08:31:06;;;;;;;3.83;2.20;;;;;;;;;;5036855;28;20507;-65
2022/09/09 08:33:37;;;;;;;9.37;2.73;;;;;;;;;;5037084;28;20509;-66
2022/09/09 08:36:04;;;;;;;8.00;2.80;;;;;;;;;;5037130;28;20437;-66
2022/09/09 08:38:31;;;;;;;4.10;2.73;;;;;;;;;;5036612;28;20966;-66
2022/09/09 08:41:01;;;;;;;6.23;2.50;;;;;;;;;;5036651;28;20449;-66
2022/09/09 08:43:29;;;;;;;9.90;3.50;;;;;;;;;;5036516;28;20461;-66
2022/09/09 08:45:59;;;;;;;11.90;3.30;;;;;;;;;;5036891;28;20441;-66
2022/09/09 08:48:34;;;;;;;3.90;2.83;;;;;;;;;;5036980;28;20437;-65
2022/09/09 08:51:07;;;;;;;4.63;2.90;;;;;;;;;;5037242;28;20790;-66
2022/09/09 08:53:39;;;;;;;7.47;3.33;;;;;;;;;;5036915;28;20480;-66
2022/09/09 08:56:11;;;;;;;9.67;3.53;;;;;;;;;;5036968;28;20450;-65
2022/09/09 08:58:43;;;;;;;5.83;3.00;;;;;;;;;;5036574;28;20449;-65
2022/09/09 09:01:18;;;;;;;3.33;3.03;;;;;;;;;;5036985;28;20557;-65
2022/09/09 09:03:50;;;;;;;5.53;3.50;;;;;;;;;;5036949;28;20428;-65
2022/09/09 09:06:24;;;;;;;5.33;2.83;;;;;;;;;;5036270;28;21016;-65
2022/09/09 09:08:57;;;;;;;5.77;2.70;;;;;;;;;;5036732;28;20440;-65
2022/09/09 09:11:24;;;;;;;4.60;2.50;;;;;;;;;;5036749;28;20442;-65
2022/09/09 09:13:54;;;;;;;5.93;2.87;;;;;;;;;;5036255;28;20500;-65
2022/09/09 09:16:24;;;;;;;6.53;2.87;;;;;;;;;;5036030;28;20947;-65
2022/09/09 09:18:51;;;;;;;4.77;2.70;;;;;;;;;;5036368;28;20533;-65
2022/09/09 09:21:23;;;;;;;4.90;2.97;;;;;;;;;;5035899;28;20443;-65
2022/09/09 09:23:55;;;;;;;7.50;2.50;;;;;;;;;;5035895;28;20952;-65
2022/09/09 09:26:24;;;;;;;6.03;3.47;;;;;;;;;;5035929;28;20440;-66
2022/09/09 09:28:52;;;;;;;5.07;2.20;;;;;;;;;;5036631;28;20441;-66
2022/09/09 09:31:22;;;;;;;3.57;2.50;;;;;;;;;;5035871;28;20967;-66
2022/09/09 09:33:52;;;;;;;9.07;3.00;;;;;;;;;;5036166;28;20478;-65
2022/09/09 09:36:19;;;;;;;4.83;2.30;;;;;;;;;;5035682;28;20488;-65
2022/09/09 09:38:55;;;;;;;7.60;2.90;;;;;;;;;;5036459;28;20449;-65
2022/09/09 09:41:32;;;;;;;4.20;2.27;;;;;;;;;;5035904;28;20567;-66
2022/09/09 09:44:01;;;;;;;3.70;2.20;;;;;;;;;;5036280;28;20459;-66
2022/09/09 09:46:29;;;;;;;5.20;2.20;;;;;;;;;;5035547;28;20490;-66
2022/09/09 09:48:59;;;;;;;3.63;2.30;;;;;;;;;;5035863;28;20438;-66
2022/09/09 09:51:27;;;;;;;4.10;2.80;;;;;;;;;;5035900;28;20525;-65
2022/09/09 09:54:05;;;;;;;5.70;2.80;;;;;;;;;;5035727;28;20487;-66
2022/09/09 09:56:33;;;;;;;5.77;2.50;;;;;;;;;;5036018;28;20448;-67
2022/09/09 09:59:00;;;;;;;4.00;2.60;;;;;;;;;;5035605;28;20910;-65
2022/09/09 10:01:29;;;;;;;4.57;2.53;;;;;;;;;;5035134;28;20457;-65
2022/09/09 10:03:59;;;;;;;2.47;2.27;;;;;;;;;;5035380;28;20442;-65
2022/09/09 10:06:37;;;;;;;3.10;2.43;;;;;;;;;;5035462;28;20787;-66
2022/09/09 10:09:20;;;;;;;4.17;2.67;;;;;;;;;;5035213;28;20921;-66
2022/09/09 10:11:53;;;;;;;3.77;2.60;;;;;;;;;;5035073;28;20961;-66
2022/09/09 10:14:22;;;;;;;6.93;2.47;;;;;;;;;;5035428;28;20472;-66
2022/09/09 10:17:00;;;;;;;5.37;2.80;;;;;;;;;;5034896;28;20949;-65
2022/09/09 10:19:32;;;;;;;8.10;3.00;;;;;;;;;;5034809;28;20948;-65
2022/09/09 10:22:06;;;;;;;5.17;3.00;;;;;;;;;;5034870;28;20921;-65
2022/09/09 10:24:51;;;;;;;8.90;2.87;;;;;;;;;;5034792;28;20461;-65
2022/09/09 10:27:25;;;;;;;8.23;3.30;;;;;;;;;;5025469;28;20460;-65
2022/09/09 10:30:00;;;;;;;3.30;3.10;;;;;;;;;;5034927;28;20657;-66
2022/09/09 10:32:34;;;;;;;5.17;2.80;;;;;;;;;;5034575;28;20487;-67
2022/09/09 10:35:06;;;;;;;5.73;2.97;;;;;;;;;;5034517;28;20430;-66
2022/09/09 10:37:42;;;;;;;7.73;3.70;;;;;;;;;;5034916;28;20438;-66
2022/09/09 10:40:19;;;;;;;4.17;2.90;;;;;;;;;;5034479;28;20461;-66
2022/09/09 10:42:48;;;;;;;4.93;3.10;;;;;;;;;;5034783;28;20435;-65
2022/09/09 10:45:19;;;;;;;5.63;3.17;;;;;;;;;;5034316;28;20528;-67
2022/09/09 10:47:52;;;;;;;5.80;3.00;;;;;;;;;;5034779;28;20492;-66
2022/09/09 10:50:31;;;;;;;7.73;3.93;;;;;;;;;;5034802;28;20454;-65
2022/09/09 10:53:02;;;;;;;5.63;3.23;;;;;;;;;;5034893;28;20470;-67
2022/09/09 10:55:35;;;;;;;8.90;3.20;;;;;;;;;;5034268;28;20954;-67
2022/09/09 10:58:06;;;;;;;7.70;3.40;;;;;;;;;;5034467;28;20438;-65
2022/09/09 11:00:39;;;;;;;4.87;3.20;;;;;;;;;;5034696;28;20445;-65
2022/09/09 11:03:08;;;;;;;6.77;4.03;;;;;;;;;;5034786;28;20795;-65
2022/09/09 11:05:39;;;;;;;3.23;2.70;;;;;;;;;;5034602;28;20845;-66
2022/09/09 11:08:11;;;;;;;4.77;2.90;;;;;;;;;;5034314;28;20438;-66
2022/09/09 11:10:42;;;;;;;3.77;2.97;;;;;;;;;;5034316;28;20442;-66
2022/09/09 11:13:16;;;;;;;4.47;2.47;;;;;;;;;;5033862;28;20462;-65
2022/09/09 11:15:44;;;;;;;5.00;2.43;;;;;;;;;;5033814;28;20915;-66
2022/09/09 11:18:13;;;;;;;9.33;3.13;;;;;;;;;;5034717;28;20438;-65
2022/09/09 11:20:41;;;;;;;5.47;2.73;;;;;;;;;;5033957;28;20954;-66
2022/09/09 11:23:13;;;;;;;4.87;3.30;;;;;;;;;;5033988;28;20478;-66
2022/09/09 11:25:42;;;;;;;8.73;3.00;;;;;;;;;;5033617;28;20435;-66
2022/09/09 11:28:22;;;;;;;5.70;3.87;;;;;;;;;;5033859;28;20496;-66
2022/09/09 11:30:56;;;;;;;6.10;3.00;;;;;;;;;;5033435;28;20473;-66
2022/09/09 11:33:41;;;;;;;4.20;3.33;;;;;;;;;;5033927;28;20651;-66
2022/09/09 11:36:19;;;;;;;5.47;2.90;;;;;;;;;;5033828;28;20437;-66
2022/09/09 11:38:47;;;;;;;7.53;2.50;;;;;;;;;;5034049;28;20434;-66
2022/09/09 11:41:16;;;;;;;3.67;2.20;;;;;;;;;;5033330;28;20450;-65
2022/09/09 11:43:45;;;;;;;7.87;2.73;;;;;;;;;;5033354;28;20457;-65
2022/09/09 11:46:15;;;;;;;5.10;3.20;;;;;;;;;;5033439;28;20469;-66
2022/09/09 11:48:45;;;;;;;3.50;2.70;;;;;;;;;;5033444;28;20442;-66
2022/09/09 11:51:13;;;;;;;6.93;3.60;;;;;;;;;;5033841;28;20438;-66
2022/09/09 11:53:49;;;;;;;4.83;3.50;;;;;;;;;;5033847;28;20478;-66
2022/09/09 11:56:26;;;;;;;12.50;3.20;;;;;;;;;;5033127;28;20430;-65
2022/09/09 11:58:59;;;;;;;3.67;2.60;;;;;;;;;;5033601;28;20838;-65
2022/09/09 12:01:36;;;;;;;4.27;2.37;;;;;;;;;;5033941;28;20446;-66
2022/09/09 12:04:22;;;;;;;4.60;2.70;;;;;;;;;;5033527;28;20449;-65
2022/09/09 12:06:52;;;;;;;5.73;2.50;;;;;;;;;;5033591;28;20811;-65
2022/09/09 12:09:21;;;;;;;6.13;2.37;;;;;;;;;;5033128;28;20451;-66
2022/09/09 12:11:48;;;;;;;6.00;1.93;;;;;;;;;;5033014;28;20486;-66
2022/09/09 12:14:37;;;;;;;2.07;1.73;;;;;;;;;;5033353;28;20967;-65
2022/09/09 12:17:21;;;;;;;4.03;1.83;;;;;;;;;;5033181;28;20463;-65
2022/09/09 12:19:49;;;;;;;3.60;1.67;;;;;;;;;;5033246;28;20496;-66
2022/09/09 12:22:20;;;;;;;2.13;1.70;;;;;;;;;;5032876;28;20446;-65
2022/09/09 12:24:51;;;;;;;5.43;2.27;;;;;;;;;;5033449;28;20454;-65
2022/09/09 12:27:22;;;;;;;3.63;1.63;;;;;;;;;;5032892;28;20437;-66
2022/09/09 12:29:53;;;;;;;3.50;1.70;;;;;;;;;;5033427;28;20437;-65
2022/09/09 12:32:23;;;;;;;8.67;2.03;;;;;;;;;;5033464;28;20528;-66
2022/09/09 12:34:53;;;;;;;2.20;1.23;;;;;;;;;;5033062;28;20978;-65
2022/09/09 12:37:26;;;;;;;6.27;2.10;;;;;;;;;;5032895;28;20443;-70
2022/09/09 12:39:55;;;;;;;2.10;1.20;;;;;;;;;;5033854;28;20494;-67
2022/09/09 12:42:22;;;;;;;4.13;1.93;;;;;;;;;;5032488;28;20458;-66
2022/09/09 12:44:58;;;;;;;5.97;2.10;;;;;;;;;;5032768;28;20447;-64
2022/09/09 12:47:28;;;;;;;2.50;1.60;;;;;;;;;;5032870;28;20438;-65
2022/09/09 12:49:56;;;;;;;3.17;2.10;;;;;;;;;;5033164;28;20514;-65
2022/09/09 12:52:27;;;;;;;3.50;1.90;;;;;;;;;;5032864;28;20786;-64
2022/09/09 12:54:54;;;;;;;3.20;1.70;;;;;;;;;;5033166;28;20472;-64
2022/09/09 12:57:24;;;;;;;3.37;1.60;;;;;;;;;;5034662;28;20463;-64
2022/09/09 12:59:53;;;;;;;6.93;2.13;;;;;;;;;;5034227;28;20437;-65
2022/09/09 13:02:22;;;;;;;6.60;1.63;;;;;;;;;;5036046;28;20997;-64
2022/09/09 13:04:50;;;;;;;2.77;1.47;;;;;;;;;;5035318;28;20448;-65
2022/09/09 13:07:18;;;;;;;3.43;1.63;;;;;;;;;;5035158;28;20498;-65
2022/09/09 13:09:45;;;;;;;3.10;2.33;;;;;;;;;;5035300;28;20489;-65
2022/09/09 13:12:15;;;;;;;4.03;1.90;;;;;;;;;;5035837;28;20431;-65
2022/09/09 13:14:46;;;;;;;5.70;2.17;;;;;;;;;;5035617;28;20482;-64
2022/09/09 13:17:19;;;;;;;2.93;1.80;;;;;;;;;;5035902;28;20489;-65
2022/09/09 13:19:47;;;;;;;2.60;1.67;;;;;;;;;;5036348;28;20438;-65
2022/09/09 13:22:16;;;;;;;1.60;1.50;;;;;;;;;;5035924;28;20443;-65
2022/09/09 13:24:43;;;;;;;3.07;1.80;;;;;;;;;;5035917;28;20446;-64
2022/09/09 13:27:31;;;;;;;2.47;2.27;;;;;;;;;;5035777;28;20886;-64
2022/09/09 13:29:58;;;;;;;3.07;2.30;;;;;;;;;;5036077;28;20434;-67
2022/09/09 13:32:26;;;;;;;8.60;3.57;;;;;;;;;;5035678;28;20516;-70
2022/09/09 13:34:56;;;;;;;8.53;3.40;;;;;;;;;;5035224;28;20484;-70
2022/09/09 13:37:25;;;;;;;6.20;3.77;;;;;;;;;;5035024;28;20446;-70
2022/09/09 13:39:53;;;;;;;5.03;4.53;;;;;;;;;;5035210;28;20443;-70
2022/09/09 13:42:26;;;;;;;7.57;2.80;;;;;;;;;;5034963;28;20446;-70
2022/09/09 13:44:54;;;;;;;8.63;3.30;;;;;;;;;;5035629;28;20432;-70
2022/09/09 13:47:23;;;;;;;3.93;3.53;;;;;;;;;;5035174;28;20947;-70
2022/09/09 13:49:50;;;;;;;4.47;3.83;;;;;;;;;;5035548;28;20835;-70
2022/09/09 13:52:19;;;;;;;3.67;3.10;;;;;;;;;;5034948;28;20447;-70
2022/09/09 13:54:49;;;;;;;4.90;2.67;;;;;;;;;;5035213;28;20477;-70
2022/09/09 13:57:18;;;;;;;7.73;3.33;;;;;;;;;;5034925;28;20449;-70
2022/09/09 13:59:45;;;;;;;3.30;2.60;;;;;;;;;;5035259;28;20449;-69
2022/09/09 14:02:13;;;;;;;9.07;3.20;;;;;;;;;;5035191;28;20448;-69
2022/09/09 14:04:41;;;;;;;5.13;3.13;;;;;;;;;;5035086;28;20823;-68
2022/09/09 14:07:10;;;;;;;6.30;2.70;;;;;;;;;;5034493;28;20456;-68
2022/09/09 14:09:39;;;;;;;4.57;2.90;;;;;;;;;;5033882;28;20452;-68
2022/09/09 14:12:06;;;;;;;5.23;2.70;;;;;;;;;;5035101;28;20459;-68
2022/09/09 14:14:33;;;;;;;5.70;2.90;;;;;;;;;;5034647;28;20484;-68
2022/09/09 14:17:01;;;;;;;7.83;2.60;;;;;;;;;;5034865;28;20776;-67
2022/09/09 14:19:28;;;;;;;4.80;2.30;;;;;;;;;;5034917;28;20804;-68
2022/09/09 14:21:55;;;;;;;3.40;2.33;;;;;;;;;;5035226;28;20450;-69
2022/09/09 14:24:22;;;;;;;4.37;2.07;;;;;;;;;;5034848;28;20456;-68
2022/09/09 14:26:51;;;;;;;12.00;2.50;;;;;;;;;;5034631;28;20499;-71
2022/09/09 14:29:18;;;;;;;7.90;2.80;;;;;;;;;;5034625;28;20453;-70
2022/09/09 14:31:45;;;;;;;4.47;2.40;;;;;;;;;;5034324;28;20488;-70
2022/09/09 14:34:14;;;;;;;5.77;1.90;;;;;;;;;;5034521;28;20523;-70
2022/09/09 14:36:41;;;;;;;4.07;2.10;;;;;;;;;;5034576;28;20501;-69
2022/09/09 14:39:08;;;;;;;3.80;2.40;;;;;;;;;;5034268;28;20514;-69
2022/09/09 14:41:35;;;;;;;2.00;1.90;;;;;;;;;;5034488;28;20815;-69
2022/09/09 14:44:04;;;;;;;3.23;2.23;;;;;;;;;;5034638;28;20449;-69
2022/09/09 14:46:32;;;;;;;7.63;5.67;;;;;;;;;;5034484;28;20928;-68
2022/09/09 14:48:59;;;;;;;5.10;2.90;;;;;;;;;;5034360;28;20492;-68
2022/09/09 14:51:27;;;;;;;3.03;2.50;;;;;;;;;;5033533;28;20450;-68
2022/09/09 14:53:54;;;;;;;3.53;3.23;;;;;;;;;;5033864;28;20449;-68
2022/09/09 14:56:22;;;;;;;3.90;2.50;;;;;;;;;;5034280;28;20591;-68
2022/09/09 14:58:50;;;;;;;3.63;2.40;;;;;;;;;;5034060;28;20442;-68